sensor_id;sensor_type;location;lat;lon;timestamp;pressure;altitude;pressure_sealevel;temperature;humidity
64230;BME280;50547;49.498;0.092;2023-07-29T00:01:26;1004.33;;;22.45;69.93
64230;BME280;50547;49.498;0.092;2023-07-29T00:03:55;1004.33;;;22.40;70.46
64230;BME280;50547;49.498;0.092;2023-07-29T00:06:24;1004.29;;;22.50;70.05
64230;BME280;50547;49.498;0.092;2023-07-29T00:08:53;1004.33;;;22.62;69.67
64230;BME280;50547;49.498;0.092;2023-07-29T00:11:22;1004.35;;;22.60;69.84
64230;BME280;50547;49.498;0.092;2023-07-29T00:13:51;1004.33;;;22.69;69.70
64230;BME280;50547;49.498;0.092;2023-07-29T00:16:20;1004.29;;;22.72;69.60
64230;BME280;50547;49.498;0.092;2023-07-29T00:18:49;1004.35;;;22.72;70.03
64230;BME280;50547;49.498;0.092;2023-07-29T00:21:18;1004.29;;;22.81;69.78
64230;BME280;50547;49.498;0.092;2023-07-29T00:23:47;1004.37;;;22.88;69.86
64230;BME280;50547;49.498;0.092;2023-07-29T00:26:16;1004.41;;;22.83;70.25
64230;BME280;50547;49.498;0.092;2023-07-29T00:28:45;1004.43;;;22.74;70.79
64230;BME280;50547;49.498;0.092;2023-07-29T00:31:14;1004.45;;;22.84;70.39
64230;BME280;50547;49.498;0.092;2023-07-29T00:33:43;1004.39;;;22.27;75.12
64230;BME280;50547;49.498;0.092;2023-07-29T00:36:13;1004.39;;;22.27;74.77
64230;BME280;50547;49.498;0.092;2023-07-29T00:38:42;1004.45;;;22.25;74.72
64230;BME280;50547;49.498;0.092;2023-07-29T00:41:09;1004.41;;;22.03;75.86
64230;BME280;50547;49.498;0.092;2023-07-29T00:43:40;1004.41;;;21.94;76.21
64230;BME280;50547;49.498;0.092;2023-07-29T00:46:09;1004.45;;;21.74;77.31
64230;BME280;50547;49.498;0.092;2023-07-29T00:48:38;1004.43;;;21.53;77.84
64230;BME280;50547;49.498;0.092;2023-07-29T00:51:08;1004.47;;;21.54;77.59
64230;BME280;50547;49.498;0.092;2023-07-29T00:53:37;1004.45;;;21.33;78.77
64230;BME280;50547;49.498;0.092;2023-07-29T00:56:06;1004.48;;;21.26;78.98
64230;BME280;50547;49.498;0.092;2023-07-29T00:58:32;1004.52;;;21.24;79.20
64230;BME280;50547;49.498;0.092;2023-07-29T01:01:01;1004.56;;;21.16;79.91
64230;BME280;50547;49.498;0.092;2023-07-29T01:03:30;1004.54;;;20.96;81.36
64230;BME280;50547;49.498;0.092;2023-07-29T01:06:04;1004.56;;;20.84;82.27
64230;BME280;50547;49.498;0.092;2023-07-29T01:08:45;1004.56;;;20.64;82.37
64230;BME280;50547;49.498;0.092;2023-07-29T01:11:18;1004.50;;;20.77;81.99
64230;BME280;50547;49.498;0.092;2023-07-29T01:13:50;1004.45;;;20.55;82.10
64230;BME280;50547;49.498;0.092;2023-07-29T01:16:25;1004.35;;;20.65;81.00
64230;BME280;50547;49.498;0.092;2023-07-29T01:19:01;1004.37;;;20.41;80.74
64230;BME280;50547;49.498;0.092;2023-07-29T01:21:35;1004.35;;;20.58;81.10
64230;BME280;50547;49.498;0.092;2023-07-29T01:24:04;1004.39;;;20.51;81.75
64230;BME280;50547;49.498;0.092;2023-07-29T01:26:38;1004.39;;;20.47;82.63
64230;BME280;50547;49.498;0.092;2023-07-29T01:29:08;1004.35;;;20.38;83.07
64230;BME280;50547;49.498;0.092;2023-07-29T01:31:41;1004.39;;;20.10;83.79
64230;BME280;50547;49.498;0.092;2023-07-29T01:34:17;1004.39;;;20.19;82.70
64230;BME280;50547;49.498;0.092;2023-07-29T01:36:54;1004.39;;;20.07;83.01
64230;BME280;50547;49.498;0.092;2023-07-29T01:39:27;1004.37;;;20.14;83.18
64230;BME280;50547;49.498;0.092;2023-07-29T01:41:58;1004.35;;;20.17;82.65
64230;BME280;50547;49.498;0.092;2023-07-29T01:44:24;1004.33;;;20.14;83.09
64230;BME280;50547;49.498;0.092;2023-07-29T01:46:55;1004.39;;;20.02;83.18
64230;BME280;50547;49.498;0.092;2023-07-29T01:49:24;1004.37;;;20.07;82.67
64230;BME280;50547;49.498;0.092;2023-07-29T01:51:53;1004.31;;;20.25;81.76
64230;BME280;50547;49.498;0.092;2023-07-29T01:54:22;1004.37;;;20.22;82.14
64230;BME280;50547;49.498;0.092;2023-07-29T01:56:52;1004.31;;;20.26;82.34
64230;BME280;50547;49.498;0.092;2023-07-29T01:59:21;1004.29;;;20.26;82.43
64230;BME280;50547;49.498;0.092;2023-07-29T02:01:50;1004.27;;;20.18;82.88
64230;BME280;50547;49.498;0.092;2023-07-29T02:04:24;1004.21;;;20.14;83.13
64230;BME280;50547;49.498;0.092;2023-07-29T02:06:53;1004.27;;;20.04;83.71
64230;BME280;50547;49.498;0.092;2023-07-29T02:09:22;1004.25;;;19.91;84.21
64230;BME280;50547;49.498;0.092;2023-07-29T02:11:51;1004.23;;;19.86;84.14
64230;BME280;50547;49.498;0.092;2023-07-29T02:14:20;1004.17;;;19.76;84.75
64230;BME280;50547;49.498;0.092;2023-07-29T02:16:49;1004.17;;;19.79;84.39
64230;BME280;50547;49.498;0.092;2023-07-29T02:19:18;1004.17;;;19.75;84.56
64230;BME280;50547;49.498;0.092;2023-07-29T02:21:46;1004.19;;;19.64;85.02
64230;BME280;50547;49.498;0.092;2023-07-29T02:24:15;1004.15;;;19.73;84.64
64230;BME280;50547;49.498;0.092;2023-07-29T02:26:44;1004.15;;;19.70;84.65
64230;BME280;50547;49.498;0.092;2023-07-29T02:29:14;1004.25;;;19.72;84.67
64230;BME280;50547;49.498;0.092;2023-07-29T02:31:43;1004.21;;;19.77;84.68
64230;BME280;50547;49.498;0.092;2023-07-29T02:34:12;1004.21;;;19.75;84.39
64230;BME280;50547;49.498;0.092;2023-07-29T02:36:41;1004.09;;;19.64;84.76
64230;BME280;50547;49.498;0.092;2023-07-29T02:39:10;1004.19;;;19.56;84.92
64230;BME280;50547;49.498;0.092;2023-07-29T02:41:39;1004.21;;;19.73;84.12
64230;BME280;50547;49.498;0.092;2023-07-29T02:44:08;1004.15;;;19.74;84.23
64230;BME280;50547;49.498;0.092;2023-07-29T02:46:37;1004.13;;;19.72;84.42
64230;BME280;50547;49.498;0.092;2023-07-29T02:49:11;1004.17;;;19.52;85.12
64230;BME280;50547;49.498;0.092;2023-07-29T02:51:40;1004.21;;;19.75;83.87
64230;BME280;50547;49.498;0.092;2023-07-29T02:54:09;1004.23;;;19.66;84.44
64230;BME280;50547;49.498;0.092;2023-07-29T02:56:38;1004.15;;;19.65;84.82
64230;BME280;50547;49.498;0.092;2023-07-29T02:59:07;1004.25;;;19.66;84.39
64230;BME280;50547;49.498;0.092;2023-07-29T03:01:36;1004.23;;;19.61;84.81
64230;BME280;50547;49.498;0.092;2023-07-29T03:04:05;1004.25;;;19.63;84.72
64230;BME280;50547;49.498;0.092;2023-07-29T03:06:34;1004.25;;;19.69;84.31
64230;BME280;50547;49.498;0.092;2023-07-29T03:09:02;1004.29;;;19.61;84.49
64230;BME280;50547;49.498;0.092;2023-07-29T03:11:31;1004.35;;;19.57;84.29
64230;BME280;50547;49.498;0.092;2023-07-29T03:14:00;1004.29;;;19.59;84.37
64230;BME280;50547;49.498;0.092;2023-07-29T03:16:29;1004.25;;;19.67;83.73
64230;BME280;50547;49.498;0.092;2023-07-29T03:18:58;1004.31;;;19.63;84.58
64230;BME280;50547;49.498;0.092;2023-07-29T03:21:27;1004.35;;;19.66;84.24
64230;BME280;50547;49.498;0.092;2023-07-29T03:23:56;1004.29;;;19.63;84.36
64230;BME280;50547;49.498;0.092;2023-07-29T03:26:26;1004.29;;;19.60;84.33
64230;BME280;50547;49.498;0.092;2023-07-29T03:28:55;1004.31;;;19.51;84.51
64230;BME280;50547;49.498;0.092;2023-07-29T03:31:23;1004.29;;;19.47;84.33
64230;BME280;50547;49.498;0.092;2023-07-29T03:33:52;1004.31;;;19.32;84.88
64230;BME280;50547;49.498;0.092;2023-07-29T03:36:21;1004.29;;;19.27;85.01
64230;BME280;50547;49.498;0.092;2023-07-29T03:38:51;1004.37;;;19.28;84.86
64230;BME280;50547;49.498;0.092;2023-07-29T03:41:19;1004.29;;;19.27;84.79
64230;BME280;50547;49.498;0.092;2023-07-29T03:43:49;1004.31;;;19.29;85.18
64230;BME280;50547;49.498;0.092;2023-07-29T03:46:18;1004.33;;;19.27;84.93
64230;BME280;50547;49.498;0.092;2023-07-29T03:48:47;1004.35;;;19.20;85.16
64230;BME280;50547;49.498;0.092;2023-07-29T03:51:16;1004.33;;;19.19;84.99
64230;BME280;50547;49.498;0.092;2023-07-29T03:53:45;1004.39;;;19.17;84.99
64230;BME280;50547;49.498;0.092;2023-07-29T03:56:14;1004.27;;;19.13;85.25
64230;BME280;50547;49.498;0.092;2023-07-29T03:58:43;1004.33;;;19.14;84.97
64230;BME280;50547;49.498;0.092;2023-07-29T04:01:12;1004.29;;;19.18;85.31
64230;BME280;50547;49.498;0.092;2023-07-29T04:03:41;1004.29;;;19.03;85.68
64230;BME280;50547;49.498;0.092;2023-07-29T04:06:10;1004.31;;;19.09;85.38
64230;BME280;50547;49.498;0.092;2023-07-29T04:08:39;1004.33;;;19.09;85.54
64230;BME280;50547;49.498;0.092;2023-07-29T04:11:08;1004.35;;;19.04;85.47
64230;BME280;50547;49.498;0.092;2023-07-29T04:13:37;1004.35;;;19.13;85.52
64230;BME280;50547;49.498;0.092;2023-07-29T04:16:06;1004.33;;;19.17;85.22
64230;BME280;50547;49.498;0.092;2023-07-29T04:18:35;1004.33;;;19.23;85.03
64230;BME280;50547;49.498;0.092;2023-07-29T04:21:04;1004.23;;;19.25;85.08
64230;BME280;50547;49.498;0.092;2023-07-29T04:23:33;1004.27;;;19.18;85.24
64230;BME280;50547;49.498;0.092;2023-07-29T04:26:02;1004.21;;;19.26;84.85
64230;BME280;50547;49.498;0.092;2023-07-29T04:28:31;1004.37;;;19.16;85.45
64230;BME280;50547;49.498;0.092;2023-07-29T04:31:00;1004.33;;;19.16;85.60
64230;BME280;50547;49.498;0.092;2023-07-29T04:33:29;1004.29;;;19.18;85.48
64230;BME280;50547;49.498;0.092;2023-07-29T04:35:59;1004.31;;;19.15;85.80
64230;BME280;50547;49.498;0.092;2023-07-29T04:38:30;1004.31;;;19.21;85.49
64230;BME280;50547;49.498;0.092;2023-07-29T04:41:00;1004.48;;;19.14;86.60
64230;BME280;50547;49.498;0.092;2023-07-29T04:43:31;1004.41;;;19.00;87.68
64230;BME280;50547;49.498;0.092;2023-07-29T04:46:01;1004.35;;;18.76;89.89
64230;BME280;50547;49.498;0.092;2023-07-29T04:48:30;1004.37;;;18.70;90.30
64230;BME280;50547;49.498;0.092;2023-07-29T04:50:59;1004.47;;;18.72;90.42
64230;BME280;50547;49.498;0.092;2023-07-29T04:53:27;1004.37;;;18.70;90.51
64230;BME280;50547;49.498;0.092;2023-07-29T04:55:56;1004.39;;;18.59;90.84
64230;BME280;50547;49.498;0.092;2023-07-29T04:58:25;1004.35;;;18.61;91.14
64230;BME280;50547;49.498;0.092;2023-07-29T05:00:54;1004.27;;;18.72;90.81
64230;BME280;50547;49.498;0.092;2023-07-29T05:03:24;1004.41;;;18.62;90.94
64230;BME280;50547;49.498;0.092;2023-07-29T05:05:53;1004.37;;;18.54;91.19
64230;BME280;50547;49.498;0.092;2023-07-29T05:08:22;1004.43;;;18.56;91.23
64230;BME280;50547;49.498;0.092;2023-07-29T05:10:51;1004.41;;;18.62;90.73
64230;BME280;50547;49.498;0.092;2023-07-29T05:13:21;1004.33;;;18.74;90.45
64230;BME280;50547;49.498;0.092;2023-07-29T05:15:51;1004.39;;;18.69;90.67
64230;BME280;50547;49.498;0.092;2023-07-29T05:18:20;1004.37;;;18.65;91.03
64230;BME280;50547;49.498;0.092;2023-07-29T05:20:49;1004.50;;;18.72;90.78
64230;BME280;50547;49.498;0.092;2023-07-29T05:23:18;1004.45;;;18.74;90.71
64230;BME280;50547;49.498;0.092;2023-07-29T05:25:47;1004.31;;;18.67;90.71
64230;BME280;50547;49.498;0.092;2023-07-29T05:28:16;1004.47;;;18.76;90.47
64230;BME280;50547;49.498;0.092;2023-07-29T05:30:45;1004.48;;;18.62;90.99
64230;BME280;50547;49.498;0.092;2023-07-29T05:33:14;1004.47;;;18.71;90.65
64230;BME280;50547;49.498;0.092;2023-07-29T05:35:43;1004.48;;;18.73;90.71
64230;BME280;50547;49.498;0.092;2023-07-29T05:38:12;1004.50;;;18.77;91.25
64230;BME280;50547;49.498;0.092;2023-07-29T05:40:41;1004.43;;;18.71;91.61
64230;BME280;50547;49.498;0.092;2023-07-29T05:43:10;1004.41;;;18.89;90.91
64230;BME280;50547;49.498;0.092;2023-07-29T05:45:39;1004.47;;;18.83;91.02
64230;BME280;50547;49.498;0.092;2023-07-29T05:48:08;1004.47;;;18.91;90.90
64230;BME280;50547;49.498;0.092;2023-07-29T05:50:37;1004.45;;;18.84;90.76
64230;BME280;50547;49.498;0.092;2023-07-29T05:53:06;1004.48;;;18.90;90.16
64230;BME280;50547;49.498;0.092;2023-07-29T05:55:35;1004.47;;;18.98;89.87
64230;BME280;50547;49.498;0.092;2023-07-29T05:58:04;1004.47;;;19.03;89.23
64230;BME280;50547;49.498;0.092;2023-07-29T06:00:33;1004.45;;;19.19;88.61
64230;BME280;50547;49.498;0.092;2023-07-29T06:03:02;1004.39;;;19.17;88.50
64230;BME280;50547;49.498;0.092;2023-07-29T06:05:31;1004.43;;;19.15;88.74
64230;BME280;50547;49.498;0.092;2023-07-29T06:08:00;1004.39;;;19.10;88.75
64230;BME280;50547;49.498;0.092;2023-07-29T06:10:29;1004.39;;;19.25;88.27
64230;BME280;50547;49.498;0.092;2023-07-29T06:12:58;1004.41;;;19.31;87.78
64230;BME280;50547;49.498;0.092;2023-07-29T06:15:28;1004.43;;;19.46;87.42
64230;BME280;50547;49.498;0.092;2023-07-29T06:17:57;1004.41;;;19.67;86.67
64230;BME280;50547;49.498;0.092;2023-07-29T06:20:26;1004.39;;;19.65;86.64
64230;BME280;50547;49.498;0.092;2023-07-29T06:22:55;1004.39;;;19.64;86.67
64230;BME280;50547;49.498;0.092;2023-07-29T06:25:24;1004.41;;;19.67;86.91
64230;BME280;50547;49.498;0.092;2023-07-29T06:27:53;1004.43;;;19.74;86.53
64230;BME280;50547;49.498;0.092;2023-07-29T06:30:22;1004.50;;;19.90;85.93
64230;BME280;50547;49.498;0.092;2023-07-29T06:32:51;1004.48;;;19.76;86.68
64230;BME280;50547;49.498;0.092;2023-07-29T06:35:20;1004.54;;;19.86;86.16
64230;BME280;50547;49.498;0.092;2023-07-29T06:37:49;1004.52;;;19.87;86.17
64230;BME280;50547;49.498;0.092;2023-07-29T06:40:18;1004.56;;;20.00;85.72
64230;BME280;50547;49.498;0.092;2023-07-29T06:42:47;1004.52;;;19.98;85.77
64230;BME280;50547;49.498;0.092;2023-07-29T06:45:16;1004.52;;;19.87;86.11
64230;BME280;50547;49.498;0.092;2023-07-29T06:47:45;1004.50;;;19.95;85.82
64230;BME280;50547;49.498;0.092;2023-07-29T06:50:14;1004.52;;;19.84;86.34
64230;BME280;50547;49.498;0.092;2023-07-29T06:52:43;1004.48;;;19.88;85.89
64230;BME280;50547;49.498;0.092;2023-07-29T06:55:12;1004.43;;;19.93;85.26
64230;BME280;50547;49.498;0.092;2023-07-29T06:57:41;1004.47;;;19.93;85.17
64230;BME280;50547;49.498;0.092;2023-07-29T07:00:10;1004.48;;;20.30;83.53
64230;BME280;50547;49.498;0.092;2023-07-29T07:02:39;1004.60;;;20.39;83.53
64230;BME280;50547;49.498;0.092;2023-07-29T07:05:08;1004.52;;;20.55;82.99
64230;BME280;50547;49.498;0.092;2023-07-29T07:07:37;1004.52;;;20.55;83.14
64230;BME280;50547;49.498;0.092;2023-07-29T07:10:07;1004.62;;;20.66;82.55
64230;BME280;50547;49.498;0.092;2023-07-29T07:12:36;1004.56;;;20.82;82.25
64230;BME280;50547;49.498;0.092;2023-07-29T07:15:06;1004.54;;;20.83;81.96
64230;BME280;50547;49.498;0.092;2023-07-29T07:17:35;1004.56;;;20.63;83.39
64230;BME280;50547;49.498;0.092;2023-07-29T07:20:05;1004.60;;;20.59;83.30
64230;BME280;50547;49.498;0.092;2023-07-29T07:22:35;1004.56;;;20.44;83.71
64230;BME280;50547;49.498;0.092;2023-07-29T07:25:05;1004.64;;;20.47;83.72
64230;BME280;50547;49.498;0.092;2023-07-29T07:27:34;1004.50;;;20.60;83.24
64230;BME280;50547;49.498;0.092;2023-07-29T07:30:03;1004.62;;;20.62;83.00
64230;BME280;50547;49.498;0.092;2023-07-29T07:32:32;1004.56;;;20.52;83.12
64230;BME280;50547;49.498;0.092;2023-07-29T07:35:01;1004.64;;;20.61;82.98
64230;BME280;50547;49.498;0.092;2023-07-29T07:37:30;1004.58;;;20.63;82.45
64230;BME280;50547;49.498;0.092;2023-07-29T07:39:59;1004.50;;;20.61;82.32
64230;BME280;50547;49.498;0.092;2023-07-29T07:42:28;1004.60;;;20.71;81.94
64230;BME280;50547;49.498;0.092;2023-07-29T07:44:57;1004.64;;;20.74;82.43
64230;BME280;50547;49.498;0.092;2023-07-29T07:47:26;1004.58;;;20.86;81.96
64230;BME280;50547;49.498;0.092;2023-07-29T07:49:55;1004.68;;;20.78;81.84
64230;BME280;50547;49.498;0.092;2023-07-29T07:52:25;1004.66;;;20.78;81.95
64230;BME280;50547;49.498;0.092;2023-07-29T07:54:54;1004.62;;;20.70;82.21
64230;BME280;50547;49.498;0.092;2023-07-29T07:57:23;1004.70;;;20.74;81.77
64230;BME280;50547;49.498;0.092;2023-07-29T07:59:52;1004.66;;;20.75;82.49
64230;BME280;50547;49.498;0.092;2023-07-29T08:02:21;1004.72;;;20.89;81.98
64230;BME280;50547;49.498;0.092;2023-07-29T08:04:50;1004.68;;;20.93;81.57
64230;BME280;50547;49.498;0.092;2023-07-29T08:07:19;1004.64;;;20.83;81.67
64230;BME280;50547;49.498;0.092;2023-07-29T08:09:49;1004.72;;;20.76;81.74
64230;BME280;50547;49.498;0.092;2023-07-29T08:12:17;1004.64;;;20.94;80.87
64230;BME280;50547;49.498;0.092;2023-07-29T08:14:47;1004.68;;;20.91;81.22
64230;BME280;50547;49.498;0.092;2023-07-29T08:17:16;1004.64;;;20.77;81.26
64230;BME280;50547;49.498;0.092;2023-07-29T08:19:45;1004.62;;;20.75;80.72
64230;BME280;50547;49.498;0.092;2023-07-29T08:22:13;1004.64;;;20.74;80.09
64230;BME280;50547;49.498;0.092;2023-07-29T08:24:42;1004.70;;;20.85;79.99
64230;BME280;50547;49.498;0.092;2023-07-29T08:27:12;1004.72;;;20.91;79.28
64230;BME280;50547;49.498;0.092;2023-07-29T08:29:41;1004.66;;;21.06;79.27
64230;BME280;50547;49.498;0.092;2023-07-29T08:32:10;1004.70;;;21.00;79.56
64230;BME280;50547;49.498;0.092;2023-07-29T08:34:39;1004.74;;;20.91;80.36
64230;BME280;50547;49.498;0.092;2023-07-29T08:37:08;1004.66;;;21.04;80.49
64230;BME280;50547;49.498;0.092;2023-07-29T08:39:37;1004.70;;;21.05;79.76
64230;BME280;50547;49.498;0.092;2023-07-29T08:42:08;1004.72;;;21.04;80.43
64230;BME280;50547;49.498;0.092;2023-07-29T08:44:41;1004.72;;;20.70;83.06
64230;BME280;50547;49.498;0.092;2023-07-29T08:47:11;1004.72;;;20.79;82.22
64230;BME280;50547;49.498;0.092;2023-07-29T08:49:41;1004.72;;;20.89;82.20
64230;BME280;50547;49.498;0.092;2023-07-29T08:52:11;1004.74;;;20.89;82.26
64230;BME280;50547;49.498;0.092;2023-07-29T08:54:40;1004.70;;;20.79;82.96
64230;BME280;50547;49.498;0.092;2023-07-29T08:57:10;1004.64;;;20.85;82.72
64230;BME280;50547;49.498;0.092;2023-07-29T08:59:40;1004.70;;;20.96;83.11
64230;BME280;50547;49.498;0.092;2023-07-29T09:02:09;1004.68;;;20.84;84.04
64230;BME280;50547;49.498;0.092;2023-07-29T09:04:38;1004.70;;;20.73;84.56
64230;BME280;50547;49.498;0.092;2023-07-29T09:07:07;1004.76;;;19.66;89.19
64230;BME280;50547;49.498;0.092;2023-07-29T09:09:37;1004.96;;;19.08;91.63
64230;BME280;50547;49.498;0.092;2023-07-29T09:12:06;1004.88;;;18.44;92.70
64230;BME280;50547;49.498;0.092;2023-07-29T09:14:36;1004.92;;;18.11;93.16
64230;BME280;50547;49.498;0.092;2023-07-29T09:17:07;1004.99;;;18.23;91.47
64230;BME280;50547;49.498;0.092;2023-07-29T09:19:37;1004.98;;;18.40;90.28
64230;BME280;50547;49.498;0.092;2023-07-29T09:22:17;1004.99;;;18.55;88.98
64230;BME280;50547;49.498;0.092;2023-07-29T09:24:47;1005.11;;;18.43;89.44
64230;BME280;50547;49.498;0.092;2023-07-29T09:27:24;1005.21;;;18.41;89.30
64230;BME280;50547;49.498;0.092;2023-07-29T09:29:52;1005.25;;;18.52;88.82
64230;BME280;50547;49.498;0.092;2023-07-29T09:32:20;1005.17;;;18.34;89.38
64230;BME280;50547;49.498;0.092;2023-07-29T09:34:49;1005.21;;;18.17;90.28
64230;BME280;50547;49.498;0.092;2023-07-29T09:37:21;1005.33;;;17.91;91.11
64230;BME280;50547;49.498;0.092;2023-07-29T09:39:50;1005.37;;;17.85;91.43
64230;BME280;50547;49.498;0.092;2023-07-29T09:42:21;1005.33;;;17.75;91.47
64230;BME280;50547;49.498;0.092;2023-07-29T09:44:50;1005.37;;;17.93;90.57
64230;BME280;50547;49.498;0.092;2023-07-29T09:47:20;1005.31;;;18.08;90.09
64230;BME280;50547;49.498;0.092;2023-07-29T09:49:52;1005.37;;;18.10;89.93
64230;BME280;50547;49.498;0.092;2023-07-29T09:52:24;1005.39;;;18.14;89.68
64230;BME280;50547;49.498;0.092;2023-07-29T09:54:54;1005.41;;;18.11;90.04
64230;BME280;50547;49.498;0.092;2023-07-29T09:57:29;1005.49;;;18.13;89.87
64230;BME280;50547;49.498;0.092;2023-07-29T09:59:58;1005.53;;;18.22;89.35
64230;BME280;50547;49.498;0.092;2023-07-29T10:02:27;1005.59;;;18.33;89.06
64230;BME280;50547;49.498;0.092;2023-07-29T10:04:57;1005.61;;;18.42;89.07
64230;BME280;50547;49.498;0.092;2023-07-29T10:07:28;1005.59;;;18.25;89.53
64230;BME280;50547;49.498;0.092;2023-07-29T10:09:58;1005.65;;;18.52;88.37
64230;BME280;50547;49.498;0.092;2023-07-29T10:12:27;1005.71;;;18.62;87.88
64230;BME280;50547;49.498;0.092;2023-07-29T10:14:59;1005.69;;;18.74;87.41
64230;BME280;50547;49.498;0.092;2023-07-29T10:17:29;1005.69;;;19.00;86.87
64230;BME280;50547;49.498;0.092;2023-07-29T10:19:58;1005.65;;;19.05;87.26
64230;BME280;50547;49.498;0.092;2023-07-29T10:22:28;1005.71;;;19.26;87.25
64230;BME280;50547;49.498;0.092;2023-07-29T10:25:04;1005.71;;;19.11;88.33
64230;BME280;50547;49.498;0.092;2023-07-29T10:27:42;1005.63;;;18.92;88.84
64230;BME280;50547;49.498;0.092;2023-07-29T10:30:11;1005.59;;;19.04;86.94
64230;BME280;50547;49.498;0.092;2023-07-29T10:32:42;1005.73;;;19.24;85.78
64230;BME280;50547;49.498;0.092;2023-07-29T10:35:12;1005.75;;;19.35;85.97
64230;BME280;50547;49.498;0.092;2023-07-29T10:37:42;1005.67;;;19.26;86.37
64230;BME280;50547;49.498;0.092;2023-07-29T10:40:11;1005.63;;;19.05;86.51
64230;BME280;50547;49.498;0.092;2023-07-29T10:42:59;1005.71;;;19.25;84.94
64230;BME280;50547;49.498;0.092;2023-07-29T10:45:37;1005.61;;;19.35;84.33
64230;BME280;50547;49.498;0.092;2023-07-29T10:48:09;1005.65;;;19.63;83.57
64230;BME280;50547;49.498;0.092;2023-07-29T10:50:39;1005.69;;;19.60;84.21
64230;BME280;50547;49.498;0.092;2023-07-29T10:53:08;1005.71;;;19.89;83.10
64230;BME280;50547;49.498;0.092;2023-07-29T10:55:37;1005.71;;;19.94;83.04
64230;BME280;50547;49.498;0.092;2023-07-29T10:58:12;1005.65;;;19.97;82.43
64230;BME280;50547;49.498;0.092;2023-07-29T11:00:42;1005.61;;;20.06;82.52
64230;BME280;50547;49.498;0.092;2023-07-29T11:03:12;1005.67;;;20.32;81.65
64230;BME280;50547;49.498;0.092;2023-07-29T11:05:44;1005.75;;;20.40;80.73
64230;BME280;50547;49.498;0.092;2023-07-29T11:08:18;1005.82;;;20.86;78.94
64230;BME280;50547;49.498;0.092;2023-07-29T11:11:05;1005.77;;;20.77;79.67
64230;BME280;50547;49.498;0.092;2023-07-29T11:13:33;1005.80;;;20.78;79.76
64230;BME280;50547;49.498;0.092;2023-07-29T11:16:03;1005.77;;;20.70;80.35
64230;BME280;50547;49.498;0.092;2023-07-29T11:18:31;1005.82;;;20.70;79.63
64230;BME280;50547;49.498;0.092;2023-07-29T11:21:01;1005.86;;;21.08;78.55
64230;BME280;50547;49.498;0.092;2023-07-29T11:23:32;1005.79;;;20.95;78.62
64230;BME280;50547;49.498;0.092;2023-07-29T11:26:02;1005.82;;;20.83;79.28
64230;BME280;50547;49.498;0.092;2023-07-29T11:28:37;1005.71;;;20.84;78.73
64230;BME280;50547;49.498;0.092;2023-07-29T11:31:07;1005.77;;;21.29;75.90
64230;BME280;50547;49.498;0.092;2023-07-29T11:33:38;1005.80;;;21.38;75.11
64230;BME280;50547;49.498;0.092;2023-07-29T11:36:17;1005.79;;;21.46;73.14
64230;BME280;50547;49.498;0.092;2023-07-29T11:38:46;1005.77;;;21.63;73.77
64230;BME280;50547;49.498;0.092;2023-07-29T11:41:19;1005.69;;;21.41;71.76
64230;BME280;50547;49.498;0.092;2023-07-29T11:43:49;1005.77;;;21.80;71.88
64230;BME280;50547;49.498;0.092;2023-07-29T11:46:21;1005.80;;;21.94;71.37
64230;BME280;50547;49.498;0.092;2023-07-29T11:48:51;1005.77;;;21.89;72.47
64230;BME280;50547;49.498;0.092;2023-07-29T11:51:22;1005.94;;;21.99;71.75
64230;BME280;50547;49.498;0.092;2023-07-29T11:53:52;1005.82;;;21.86;72.02
64230;BME280;50547;49.498;0.092;2023-07-29T11:56:21;1005.82;;;22.13;70.83
64230;BME280;50547;49.498;0.092;2023-07-29T11:58:51;1005.88;;;22.23;69.80
64230;BME280;50547;49.498;0.092;2023-07-29T12:01:22;1005.82;;;21.92;69.76
64230;BME280;50547;49.498;0.092;2023-07-29T12:03:51;1005.79;;;22.04;69.30
64230;BME280;50547;49.498;0.092;2023-07-29T12:06:21;1005.80;;;21.77;69.00
64230;BME280;50547;49.498;0.092;2023-07-29T12:08:50;1005.84;;;21.99;69.29
64230;BME280;50547;49.498;0.092;2023-07-29T12:11:20;1005.69;;;21.79;71.19
64230;BME280;50547;49.498;0.092;2023-07-29T12:13:49;1005.75;;;21.69;69.75
64230;BME280;50547;49.498;0.092;2023-07-29T12:16:18;1005.71;;;21.73;69.59
64230;BME280;50547;49.498;0.092;2023-07-29T12:18:49;1005.77;;;21.76;69.11
64230;BME280;50547;49.498;0.092;2023-07-29T12:21:19;1005.75;;;21.87;67.43
64230;BME280;50547;49.498;0.092;2023-07-29T12:23:50;1005.79;;;22.00;68.11
64230;BME280;50547;49.498;0.092;2023-07-29T12:26:19;1005.77;;;22.30;67.80
64230;BME280;50547;49.498;0.092;2023-07-29T12:28:48;1005.82;;;22.06;67.84
64230;BME280;50547;49.498;0.092;2023-07-29T12:31:17;1005.80;;;21.98;68.49
64230;BME280;50547;49.498;0.092;2023-07-29T12:33:46;1005.86;;;22.01;67.99
64230;BME280;50547;49.498;0.092;2023-07-29T12:36:17;1005.86;;;22.06;68.81
64230;BME280;50547;49.498;0.092;2023-07-29T12:38:46;1005.88;;;22.23;68.25
64230;BME280;50547;49.498;0.092;2023-07-29T12:41:15;1005.86;;;22.01;68.47
64230;BME280;50547;49.498;0.092;2023-07-29T12:43:45;1005.77;;;22.10;68.05
64230;BME280;50547;49.498;0.092;2023-07-29T12:46:14;1005.92;;;22.43;68.23
64230;BME280;50547;49.498;0.092;2023-07-29T12:48:43;1005.96;;;22.20;68.43
64230;BME280;50547;49.498;0.092;2023-07-29T12:51:12;1005.94;;;22.41;67.65
64230;BME280;50547;49.498;0.092;2023-07-29T12:53:41;1005.96;;;22.47;67.43
64230;BME280;50547;49.498;0.092;2023-07-29T12:56:11;1006.00;;;22.55;67.15
64230;BME280;50547;49.498;0.092;2023-07-29T12:58:40;1006.02;;;22.63;68.20
64230;BME280;50547;49.498;0.092;2023-07-29T13:01:09;1006.06;;;22.60;67.11
64230;BME280;50547;49.498;0.092;2023-07-29T13:03:38;1006.00;;;22.59;68.48
64230;BME280;50547;49.498;0.092;2023-07-29T13:06:07;1006.14;;;22.66;67.62
64230;BME280;50547;49.498;0.092;2023-07-29T13:08:36;1006.06;;;22.55;68.83
64230;BME280;50547;49.498;0.092;2023-07-29T13:11:05;1006.08;;;22.45;67.74
64230;BME280;50547;49.498;0.092;2023-07-29T13:13:34;1006.10;;;22.73;66.53
64230;BME280;50547;49.498;0.092;2023-07-29T13:16:04;1006.06;;;22.78;66.41
64230;BME280;50547;49.498;0.092;2023-07-29T13:18:33;1006.10;;;22.65;66.06
64230;BME280;50547;49.498;0.092;2023-07-29T13:21:02;1006.12;;;22.68;66.26
64230;BME280;50547;49.498;0.092;2023-07-29T13:23:32;1006.16;;;22.74;67.07